sensor_id;sensor_type;location;lat;lon;timestamp;P1;durP1;ratioP1;P2;durP2;ratioP2
21386;SDS011;10854;45.922;6.716;2024-01-25T00:00:16;26.10;;;17.60;;
21386;SDS011;10854;45.922;6.716;2024-01-25T00:02:45;25.90;;;19.07;;
21386;SDS011;10854;45.922;6.716;2024-01-25T00:05:14;24.93;;;15.93;;
21386;SDS011;10854;45.922;6.716;2024-01-25T00:07:46;24.57;;;16.43;;
21386;SDS011;10854;45.922;6.716;2024-01-25T00:10:16;20.80;;;14.80;;
21386;SDS011;10854;45.922;6.716;2024-01-25T00:12:45;21.00;;;13.77;;
21386;SDS011;10854;45.922;6.716;2024-01-25T00:15:14;26.43;;;15.07;;
21386;SDS011;10854;45.922;6.716;2024-01-25T00:17:44;23.57;;;15.87;;
21386;SDS011;10854;45.922;6.716;2024-01-25T00:20:13;32.70;;;21.47;;
21386;SDS011;10854;45.922;6.716;2024-01-25T00:22:42;29.27;;;20.37;;
21386;SDS011;10854;45.922;6.716;2024-01-25T00:25:11;22.83;;;16.90;;
21386;SDS011;10854;45.922;6.716;2024-01-25T00:27:39;28.07;;;17.00;;
21386;SDS011;10854;45.922;6.716;2024-01-25T00:30:10;22.30;;;14.90;;
21386;SDS011;10854;45.922;6.716;2024-01-25T00:32:42;22.90;;;14.80;;
21386;SDS011;10854;45.922;6.716;2024-01-25T00:35:10;19.87;;;13.37;;
21386;SDS011;10854;45.922;6.716;2024-01-25T00:37:41;44.43;;;29.10;;
21386;SDS011;10854;45.922;6.716;2024-01-25T00:40:11;32.50;;;23.03;;
21386;SDS011;10854;45.922;6.716;2024-01-25T00:42:43;31.60;;;21.63;;
21386;SDS011;10854;45.922;6.716;2024-01-25T00:45:17;53.50;;;34.00;;
21386;SDS011;10854;45.922;6.716;2024-01-25T00:47:45;110.23;;;49.20;;
21386;SDS011;10854;45.922;6.716;2024-01-25T00:50:15;44.03;;;26.80;;
21386;SDS011;10854;45.922;6.716;2024-01-25T00:52:52;24.87;;;16.00;;
21386;SDS011;10854;45.922;6.716;2024-01-25T00:55:21;19.33;;;13.60;;
21386;SDS011;10854;45.922;6.716;2024-01-25T00:57:50;21.63;;;14.50;;
21386;SDS011;10854;45.922;6.716;2024-01-25T01:00:19;22.23;;;15.23;;
21386;SDS011;10854;45.922;6.716;2024-01-25T01:02:48;41.03;;;22.17;;
21386;SDS011;10854;45.922;6.716;2024-01-25T01:05:19;42.70;;;23.57;;
21386;SDS011;10854;45.922;6.716;2024-01-25T01:07:48;64.73;;;29.90;;
21386;SDS011;10854;45.922;6.716;2024-01-25T01:10:18;25.00;;;15.70;;
21386;SDS011;10854;45.922;6.716;2024-01-25T01:12:47;31.40;;;17.37;;
21386;SDS011;10854;45.922;6.716;2024-01-25T01:15:16;27.87;;;18.03;;
21386;SDS011;10854;45.922;6.716;2024-01-25T01:17:45;42.87;;;22.50;;
21386;SDS011;10854;45.922;6.716;2024-01-25T01:20:14;40.90;;;22.40;;
21386;SDS011;10854;45.922;6.716;2024-01-25T01:22:43;33.20;;;18.83;;
21386;SDS011;10854;45.922;6.716;2024-01-25T01:25:12;36.97;;;20.13;;
21386;SDS011;10854;45.922;6.716;2024-01-25T01:27:42;34.13;;;18.97;;
21386;SDS011;10854;45.922;6.716;2024-01-25T01:30:11;39.93;;;20.40;;
21386;SDS011;10854;45.922;6.716;2024-01-25T01:32:41;38.17;;;20.53;;
21386;SDS011;10854;45.922;6.716;2024-01-25T01:35:10;42.23;;;20.50;;
21386;SDS011;10854;45.922;6.716;2024-01-25T01:37:38;40.10;;;21.20;;
21386;SDS011;10854;45.922;6.716;2024-01-25T01:40:09;31.80;;;17.40;;
21386;SDS011;10854;45.922;6.716;2024-01-25T01:42:39;37.03;;;20.10;;
21386;SDS011;10854;45.922;6.716;2024-01-25T01:45:09;32.20;;;18.43;;
21386;SDS011;10854;45.922;6.716;2024-01-25T01:47:42;34.37;;;18.60;;
21386;SDS011;10854;45.922;6.716;2024-01-25T01:50:11;27.00;;;15.87;;
21386;SDS011;10854;45.922;6.716;2024-01-25T01:52:40;24.93;;;15.33;;
21386;SDS011;10854;45.922;6.716;2024-01-25T01:55:09;25.23;;;14.80;;
21386;SDS011;10854;45.922;6.716;2024-01-25T01:57:39;23.37;;;14.63;;
21386;SDS011;10854;45.922;6.716;2024-01-25T02:00:09;23.47;;;14.60;;
21386;SDS011;10854;45.922;6.716;2024-01-25T02:02:38;25.17;;;14.40;;
21386;SDS011;10854;45.922;6.716;2024-01-25T02:05:06;22.50;;;14.77;;
21386;SDS011;10854;45.922;6.716;2024-01-25T02:07:36;20.93;;;13.63;;
21386;SDS011;10854;45.922;6.716;2024-01-25T02:10:13;20.97;;;14.00;;
21386;SDS011;10854;45.922;6.716;2024-01-25T02:12:42;22.87;;;14.50;;
21386;SDS011;10854;45.922;6.716;2024-01-25T02:15:11;23.93;;;14.30;;
21386;SDS011;10854;45.922;6.716;2024-01-25T02:17:39;19.90;;;13.20;;
21386;SDS011;10854;45.922;6.716;2024-01-25T02:20:10;24.67;;;13.47;;
21386;SDS011;10854;45.922;6.716;2024-01-25T02:22:41;23.20;;;14.10;;
21386;SDS011;10854;45.922;6.716;2024-01-25T02:25:09;26.50;;;15.80;;
21386;SDS011;10854;45.922;6.716;2024-01-25T02:27:38;20.60;;;12.63;;
21386;SDS011;10854;45.922;6.716;2024-01-25T02:30:07;18.67;;;12.40;;
21386;SDS011;10854;45.922;6.716;2024-01-25T02:32:36;20.30;;;12.73;;
21386;SDS011;10854;45.922;6.716;2024-01-25T02:35:05;18.70;;;12.93;;
21386;SDS011;10854;45.922;6.716;2024-01-25T02:37:34;20.57;;;11.17;;
21386;SDS011;10854;45.922;6.716;2024-01-25T02:40:03;19.43;;;11.83;;
21386;SDS011;10854;45.922;6.716;2024-01-25T02:42:32;18.17;;;12.20;;
21386;SDS011;10854;45.922;6.716;2024-01-25T02:45:01;14.57;;;10.50;;
21386;SDS011;10854;45.922;6.716;2024-01-25T02:47:30;14.93;;;9.80;;
21386;SDS011;10854;45.922;6.716;2024-01-25T02:50:00;19.60;;;12.13;;
21386;SDS011;10854;45.922;6.716;2024-01-25T02:52:28;37.97;;;20.73;;
21386;SDS011;10854;45.922;6.716;2024-01-25T02:54:57;24.03;;;15.07;;
21386;SDS011;10854;45.922;6.716;2024-01-25T02:57:26;26.50;;;15.60;;
21386;SDS011;10854;45.922;6.716;2024-01-25T02:59:54;34.87;;;19.80;;
21386;SDS011;10854;45.922;6.716;2024-01-25T03:02:23;20.63;;;12.43;;
21386;SDS011;10854;45.922;6.716;2024-01-25T03:04:52;17.80;;;11.20;;
21386;SDS011;10854;45.922;6.716;2024-01-25T03:07:20;12.63;;;9.17;;
21386;SDS011;10854;45.922;6.716;2024-01-25T03:09:49;18.07;;;10.60;;
21386;SDS011;10854;45.922;6.716;2024-01-25T03:12:18;31.93;;;20.47;;
21386;SDS011;10854;45.922;6.716;2024-01-25T03:14:48;32.93;;;20.40;;
21386;SDS011;10854;45.922;6.716;2024-01-25T03:17:19;45.93;;;28.40;;
21386;SDS011;10854;45.922;6.716;2024-01-25T03:19:47;42.57;;;27.07;;
21386;SDS011;10854;45.922;6.716;2024-01-25T03:22:17;26.17;;;14.23;;
21386;SDS011;10854;45.922;6.716;2024-01-25T03:24:45;19.63;;;11.80;;
21386;SDS011;10854;45.922;6.716;2024-01-25T03:27:14;26.10;;;14.43;;
21386;SDS011;10854;45.922;6.716;2024-01-25T03:29:43;28.70;;;17.37;;
21386;SDS011;10854;45.922;6.716;2024-01-25T03:32:12;133.47;;;74.40;;
21386;SDS011;10854;45.922;6.716;2024-01-25T03:34:40;29.57;;;19.33;;
21386;SDS011;10854;45.922;6.716;2024-01-25T03:37:10;48.57;;;29.60;;
21386;SDS011;10854;45.922;6.716;2024-01-25T03:39:40;27.63;;;17.53;;
21386;SDS011;10854;45.922;6.716;2024-01-25T03:42:09;19.77;;;12.70;;
21386;SDS011;10854;45.922;6.716;2024-01-25T03:44:39;15.13;;;9.87;;
21386;SDS011;10854;45.922;6.716;2024-01-25T03:47:11;16.43;;;10.37;;
21386;SDS011;10854;45.922;6.716;2024-01-25T03:49:39;14.63;;;9.23;;
21386;SDS011;10854;45.922;6.716;2024-01-25T03:52:08;13.70;;;9.10;;
21386;SDS011;10854;45.922;6.716;2024-01-25T03:54:37;18.03;;;10.13;;
21386;SDS011;10854;45.922;6.716;2024-01-25T03:57:05;10.73;;;7.73;;
21386;SDS011;10854;45.922;6.716;2024-01-25T03:59:34;15.83;;;11.43;;
21386;SDS011;10854;45.922;6.716;2024-01-25T04:02:03;16.27;;;10.27;;
21386;SDS011;10854;45.922;6.716;2024-01-25T04:04:33;14.43;;;9.33;;
21386;SDS011;10854;45.922;6.716;2024-01-25T04:07:03;14.13;;;9.40;;
21386;SDS011;10854;45.922;6.716;2024-01-25T04:09:32;15.03;;;9.60;;
21386;SDS011;10854;45.922;6.716;2024-01-25T04:12:01;16.73;;;10.07;;
21386;SDS011;10854;45.922;6.716;2024-01-25T04:14:30;15.90;;;10.23;;
21386;SDS011;10854;45.922;6.716;2024-01-25T04:16:59;17.83;;;11.07;;
21386;SDS011;10854;45.922;6.716;2024-01-25T04:19:27;16.43;;;9.77;;
21386;SDS011;10854;45.922;6.716;2024-01-25T04:21:56;18.23;;;10.80;;
21386;SDS011;10854;45.922;6.716;2024-01-25T04:24:26;15.73;;;9.67;;
21386;SDS011;10854;45.922;6.716;2024-01-25T04:26:55;14.50;;;10.13;;
21386;SDS011;10854;45.922;6.716;2024-01-25T04:29:26;34.97;;;22.60;;
21386;SDS011;10854;45.922;6.716;2024-01-25T04:31:55;20.27;;;13.40;;
21386;SDS011;10854;45.922;6.716;2024-01-25T04:34:24;16.57;;;10.43;;
21386;SDS011;10854;45.922;6.716;2024-01-25T04:36:52;21.90;;;14.50;;
21386;SDS011;10854;45.922;6.716;2024-01-25T04:39:21;24.03;;;15.90;;
21386;SDS011;10854;45.922;6.716;2024-01-25T04:41:50;49.27;;;29.13;;
21386;SDS011;10854;45.922;6.716;2024-01-25T04:44:19;16.77;;;12.30;;
21386;SDS011;10854;45.922;6.716;2024-01-25T04:46:48;21.97;;;13.10;;
21386;SDS011;10854;45.922;6.716;2024-01-25T04:49:17;21.00;;;14.07;;
21386;SDS011;10854;45.922;6.716;2024-01-25T04:51:48;20.63;;;13.60;;
21386;SDS011;10854;45.922;6.716;2024-01-25T04:54:18;28.37;;;19.00;;
21386;SDS011;10854;45.922;6.716;2024-01-25T04:56:48;20.07;;;13.10;;
21386;SDS011;10854;45.922;6.716;2024-01-25T04:59:17;22.03;;;14.70;;
21386;SDS011;10854;45.922;6.716;2024-01-25T05:01:46;20.13;;;13.10;;
21386;SDS011;10854;45.922;6.716;2024-01-25T05:04:15;21.07;;;13.63;;
21386;SDS011;10854;45.922;6.716;2024-01-25T05:06:44;20.03;;;13.63;;
21386;SDS011;10854;45.922;6.716;2024-01-25T05:09:14;14.07;;;10.40;;
21386;SDS011;10854;45.922;6.716;2024-01-25T05:11:43;17.87;;;11.97;;
21386;SDS011;10854;45.922;6.716;2024-01-25T05:14:11;17.27;;;11.47;;
21386;SDS011;10854;45.922;6.716;2024-01-25T05:16:40;17.23;;;8.73;;
21386;SDS011;10854;45.922;6.716;2024-01-25T05:19:09;11.43;;;7.07;;
21386;SDS011;10854;45.922;6.716;2024-01-25T05:21:38;12.33;;;8.47;;
21386;SDS011;10854;45.922;6.716;2024-01-25T05:24:07;15.23;;;10.50;;
21386;SDS011;10854;45.922;6.716;2024-01-25T05:26:38;13.77;;;10.80;;
21386;SDS011;10854;45.922;6.716;2024-01-25T05:29:07;15.07;;;10.00;;
21386;SDS011;10854;45.922;6.716;2024-01-25T05:31:36;17.80;;;12.57;;
21386;SDS011;10854;45.922;6.716;2024-01-25T05:34:06;16.17;;;10.60;;
21386;SDS011;10854;45.922;6.716;2024-01-25T05:36:35;24.40;;;15.17;;
21386;SDS011;10854;45.922;6.716;2024-01-25T05:39:04;15.93;;;11.50;;
21386;SDS011;10854;45.922;6.716;2024-01-25T05:41:34;15.07;;;11.03;;
21386;SDS011;10854;45.922;6.716;2024-01-25T05:44:04;17.17;;;12.90;;
21386;SDS011;10854;45.922;6.716;2024-01-25T05:46:32;14.83;;;11.23;;
21386;SDS011;10854;45.922;6.716;2024-01-25T05:49:01;15.40;;;11.80;;
21386;SDS011;10854;45.922;6.716;2024-01-25T05:51:30;16.23;;;11.97;;
21386;SDS011;10854;45.922;6.716;2024-01-25T05:53:59;16.23;;;11.50;;
21386;SDS011;10854;45.922;6.716;2024-01-25T05:56:28;23.67;;;18.07;;
21386;SDS011;10854;45.922;6.716;2024-01-25T05:58:57;12.90;;;8.73;;
21386;SDS011;10854;45.922;6.716;2024-01-25T06:01:26;11.10;;;6.23;;
21386;SDS011;10854;45.922;6.716;2024-01-25T06:03:55;9.63;;;6.90;;
21386;SDS011;10854;45.922;6.716;2024-01-25T06:06:23;9.50;;;8.10;;
21386;SDS011;10854;45.922;6.716;2024-01-25T06:08:52;13.83;;;8.43;;
21386;SDS011;10854;45.922;6.716;2024-01-25T06:11:21;14.87;;;10.43;;
21386;SDS011;10854;45.922;6.716;2024-01-25T06:13:50;15.83;;;11.67;;
21386;SDS011;10854;45.922;6.716;2024-01-25T06:16:18;18.23;;;13.57;;
21386;SDS011;10854;45.922;6.716;2024-01-25T06:18:47;14.00;;;11.20;;
21386;SDS011;10854;45.922;6.716;2024-01-25T06:21:16;15.43;;;10.33;;
21386;SDS011;10854;45.922;6.716;2024-01-25T06:23:44;15.37;;;10.30;;
21386;SDS011;10854;45.922;6.716;2024-01-25T06:26:13;13.27;;;9.07;;
21386;SDS011;10854;45.922;6.716;2024-01-25T06:28:41;14.30;;;9.90;;
21386;SDS011;10854;45.922;6.716;2024-01-25T06:31:10;15.23;;;10.20;;
21386;SDS011;10854;45.922;6.716;2024-01-25T06:33:40;32.83;;;22.43;;
21386;SDS011;10854;45.922;6.716;2024-01-25T06:36:09;18.93;;;12.73;;
21386;SDS011;10854;45.922;6.716;2024-01-25T06:38:37;17.53;;;11.50;;
21386;SDS011;10854;45.922;6.716;2024-01-25T06:41:07;17.23;;;10.63;;
21386;SDS011;10854;45.922;6.716;2024-01-25T06:43:36;15.20;;;11.03;;
21386;SDS011;10854;45.922;6.716;2024-01-25T06:46:07;14.37;;;10.13;;
21386;SDS011;10854;45.922;6.716;2024-01-25T06:48:36;16.67;;;10.63;;
21386;SDS011;10854;45.922;6.716;2024-01-25T06:51:05;20.83;;;12.50;;
21386;SDS011;10854;45.922;6.716;2024-01-25T06:53:33;20.27;;;12.37;;
21386;SDS011;10854;45.922;6.716;2024-01-25T06:56:02;18.77;;;11.13;;
21386;SDS011;10854;45.922;6.716;2024-01-25T06:58:31;15.00;;;10.20;;
21386;SDS011;10854;45.922;6.716;2024-01-25T07:01:01;19.23;;;12.00;;
21386;SDS011;10854;45.922;6.716;2024-01-25T07:03:32;15.10;;;10.07;;
21386;SDS011;10854;45.922;6.716;2024-01-25T07:06:02;12.93;;;8.77;;
21386;SDS011;10854;45.922;6.716;2024-01-25T07:08:31;11.47;;;7.90;;
21386;SDS011;10854;45.922;6.716;2024-01-25T07:11:00;14.40;;;9.80;;
21386;SDS011;10854;45.922;6.716;2024-01-25T07:13:29;13.17;;;8.97;;
21386;SDS011;10854;45.922;6.716;2024-01-25T07:16:01;17.37;;;12.10;;
21386;SDS011;10854;45.922;6.716;2024-01-25T07:18:29;20.77;;;12.53;;
21386;SDS011;10854;45.922;6.716;2024-01-25T07:20:58;14.47;;;10.20;;
21386;SDS011;10854;45.922;6.716;2024-01-25T07:23:29;13.40;;;9.00;;
21386;SDS011;10854;45.922;6.716;2024-01-25T07:25:58;10.30;;;7.90;;
21386;SDS011;10854;45.922;6.716;2024-01-25T07:28:27;10.57;;;7.60;;
21386;SDS011;10854;45.922;6.716;2024-01-25T07:30:56;12.43;;;7.60;;
21386;SDS011;10854;45.922;6.716;2024-01-25T07:33:24;10.60;;;7.27;;
21386;SDS011;10854;45.922;6.716;2024-01-25T07:35:53;10.13;;;7.30;;
21386;SDS011;10854;45.922;6.716;2024-01-25T07:38:25;8.60;;;5.00;;
21386;SDS011;10854;45.922;6.716;2024-01-25T07:40:54;8.17;;;4.37;;
21386;SDS011;10854;45.922;6.716;2024-01-25T07:43:23;5.47;;;3.23;;
21386;SDS011;10854;45.922;6.716;2024-01-25T07:45:53;6.57;;;3.10;;
21386;SDS011;10854;45.922;6.716;2024-01-25T07:48:25;5.50;;;3.60;;
21386;SDS011;10854;45.922;6.716;2024-01-25T07:50:53;5.50;;;3.20;;
21386;SDS011;10854;45.922;6.716;2024-01-25T07:53:23;6.10;;;3.80;;
21386;SDS011;10854;45.922;6.716;2024-01-25T07:55:52;7.03;;;5.43;;
21386;SDS011;10854;45.922;6.716;2024-01-25T07:58:20;8.50;;;5.53;;
21386;SDS011;10854;45.922;6.716;2024-01-25T08:00:49;12.17;;;6.87;;
21386;SDS011;10854;45.922;6.716;2024-01-25T08:03:19;14.00;;;7.77;;
21386;SDS011;10854;45.922;6.716;2024-01-25T08:05:47;12.10;;;7.20;;
21386;SDS011;10854;45.922;6.716;2024-01-25T08:08:17;9.87;;;6.73;;
21386;SDS011;10854;45.922;6.716;2024-01-25T08:10:48;9.87;;;7.07;;
21386;SDS011;10854;45.922;6.716;2024-01-25T08:13:17;13.23;;;7.87;;
21386;SDS011;10854;45.922;6.716;2024-01-25T08:15:46;11.87;;;9.00;;
21386;SDS011;10854;45.922;6.716;2024-01-25T08:18:15;13.67;;;9.37;;
21386;SDS011;10854;45.922;6.716;2024-01-25T08:20:46;14.20;;;9.93;;
21386;SDS011;10854;45.922;6.716;2024-01-25T08:23:15;14.93;;;8.90;;
21386;SDS011;10854;45.922;6.716;2024-01-25T08:25:44;13.40;;;8.63;;
21386;SDS011;10854;45.922;6.716;2024-01-25T08:28:13;9.00;;;6.10;;
21386;SDS011;10854;45.922;6.716;2024-01-25T08:30:41;9.13;;;5.20;;
21386;SDS011;10854;45.922;6.716;2024-01-25T08:33:10;12.87;;;5.97;;
21386;SDS011;10854;45.922;6.716;2024-01-25T08:35:42;12.50;;;7.07;;
21386;SDS011;10854;45.922;6.716;2024-01-25T08:41:42;13.50;;;9.13;;
21386;SDS011;10854;45.922;6.716;2024-01-25T08:44:13;15.33;;;9.17;;
21386;SDS011;10854;45.922;6.716;2024-01-25T08:46:42;14.80;;;8.80;;
21386;SDS011;10854;45.922;6.716;2024-01-25T08:49:11;17.27;;;10.30;;
21386;SDS011;10854;45.922;6.716;2024-01-25T08:51:40;14.13;;;9.20;;
21386;SDS011;10854;45.922;6.716;2024-01-25T08:54:08;11.07;;;6.90;;
21386;SDS011;10854;45.922;6.716;2024-01-25T08:56:38;14.83;;;7.53;;
21386;SDS011;10854;45.922;6.716;2024-01-25T08:59:07;10.47;;;6.40;;
21386;SDS011;10854;45.922;6.716;2024-01-25T09:01:50;12.60;;;5.33;;
21386;SDS011;10854;45.922;6.716;2024-01-25T09:04:19;9.77;;;5.77;;
21386;SDS011;10854;45.922;6.716;2024-01-25T09:06:48;8.57;;;5.70;;
21386;SDS011;10854;45.922;6.716;2024-01-25T09:09:16;5.37;;;3.60;;
21386;SDS011;10854;45.922;6.716;2024-01-25T09:11:48;6.47;;;3.77;;
21386;SDS011;10854;45.922;6.716;2024-01-25T09:14:17;8.57;;;3.80;;
21386;SDS011;10854;45.922;6.716;2024-01-25T09:16:49;7.33;;;4.83;;
21386;SDS011;10854;45.922;6.716;2024-01-25T09:19:20;12.13;;;4.90;;
21386;SDS011;10854;45.922;6.716;2024-01-25T09:21:51;10.67;;;5.17;;
21386;SDS011;10854;45.922;6.716;2024-01-25T09:24:39;19.40;;;10.83;;
21386;SDS011;10854;45.922;6.716;2024-01-25T09:27:16;12.50;;;6.00;;
21386;SDS011;10854;45.922;6.716;2024-01-25T09:29:45;8.90;;;5.67;;
21386;SDS011;10854;45.922;6.716;2024-01-25T09:32:14;11.97;;;5.63;;
21386;SDS011;10854;45.922;6.716;2024-01-25T09:34:51;8.67;;;4.80;;
21386;SDS011;10854;45.922;6.716;2024-01-25T09:37:37;5.53;;;3.53;;
21386;SDS011;10854;45.922;6.716;2024-01-25T09:40:27;5.23;;;3.00;;
21386;SDS011;10854;45.922;6.716;2024-01-25T09:43:15;6.60;;;3.57;;
21386;SDS011;10854;45.922;6.716;2024-01-25T09:46:13;9.90;;;6.23;;
21386;SDS011;10854;45.922;6.716;2024-01-25T09:49:08;6.97;;;4.00;;
21386;SDS011;10854;45.922;6.716;2024-01-25T09:51:47;5.80;;;3.87;;
21386;SDS011;10854;45.922;6.716;2024-01-25T09:54:36;7.10;;;3.17;;
21386;SDS011;10854;45.922;6.716;2024-01-25T09:57:13;3.10;;;1.95;;
21386;SDS011;10854;45.922;6.716;2024-01-25T09:59:48;4.50;;;2.58;;
21386;SDS011;10854;45.922;6.716;2024-01-25T10:02:47;6.47;;;2.25;;
21386;SDS011;10854;45.922;6.716;2024-01-25T10:05:21;7.32;;;2.60;;
21386;SDS011;10854;45.922;6.716;2024-01-25T10:07:51;4.43;;;3.10;;
21386;SDS011;10854;45.922;6.716;2024-01-25T10:10:35;2.70;;;2.05;;
21386;SDS011;10854;45.922;6.716;2024-01-25T10:13:11;3.45;;;2.00;;
21386;SDS011;10854;45.922;6.716;2024-01-25T10:16:01;4.30;;;2.00;;
21386;SDS011;10854;45.922;6.716;2024-01-25T10:18:34;5.60;;;2.40;;
21386;SDS011;10854;45.922;6.716;2024-01-25T10:21:13;3.20;;;1.55;;
21386;SDS011;10854;45.922;6.716;2024-01-25T10:23:51;5.72;;;1.63;;
21386;SDS011;10854;45.922;6.716;2024-01-25T10:26:26;2.40;;;1.75;;
21386;SDS011;10854;45.922;6.716;2024-01-25T10:28:56;2.15;;;1.30;;
21386;SDS011;10854;45.922;6.716;2024-01-25T10:31:25;1.30;;;1.00;;
21386;SDS011;10854;45.922;6.716;2024-01-25T10:33:53;2.63;;;1.05;;
21386;SDS011;10854;45.922;6.716;2024-01-25T10:36:23;3.17;;;1.10;;
21386;SDS011;10854;45.922;6.716;2024-01-25T10:38:54;2.25;;;1.15;;
21386;SDS011;10854;45.922;6.716;2024-01-25T10:41:24;3.05;;;1.33;;
21386;SDS011;10854;45.922;6.716;2024-01-25T10:43:54;1.58;;;1.10;;
21386;SDS011;10854;45.922;6.716;2024-01-25T10:46:24;1.75;;;1.17;;
21386;SDS011;10854;45.922;6.716;2024-01-25T10:48:56;1.20;;;1.10;;
21386;SDS011;10854;45.922;6.716;2024-01-25T10:51:27;1.48;;;1.10;;
21386;SDS011;10854;45.922;6.716;2024-01-25T10:53:56;1.90;;;1.30;;
21386;SDS011;10854;45.922;6.716;2024-01-25T10:56:26;4.85;;;1.30;;
21386;SDS011;10854;45.922;6.716;2024-01-25T10:58:54;1.75;;;1.42;;
21386;SDS011;10854;45.922;6.716;2024-01-25T11:01:23;3.30;;;1.60;;
21386;SDS011;10854;45.922;6.716;2024-01-25T11:03:52;1.85;;;1.35;;
21386;SDS011;10854;45.922;6.716;2024-01-25T11:06:21;2.53;;;0.90;;
21386;SDS011;10854;45.922;6.716;2024-01-25T11:08:51;1.55;;;1.38;;
21386;SDS011;10854;45.922;6.716;2024-01-25T11:11:19;1.75;;;1.30;;
21386;SDS011;10854;45.922;6.716;2024-01-25T11:13:49;1.15;;;0.80;;
21386;SDS011;10854;45.922;6.716;2024-01-25T11:16:26;1.10;;;0.88;;
21386;SDS011;10854;45.922;6.716;2024-01-25T11:18:58;4.00;;;1.02;;
21386;SDS011;10854;45.922;6.716;2024-01-25T11:21:42;1.67;;;0.90;;
21386;SDS011;10854;45.922;6.716;2024-01-25T11:24:15;1.13;;;0.90;;
21386;SDS011;10854;45.922;6.716;2024-01-25T11:26:44;1.13;;;1.00;;
21386;SDS011;10854;45.922;6.716;2024-01-25T11:29:16;1.25;;;1.00;;
21386;SDS011;10854;45.922;6.716;2024-01-25T11:31:51;2.55;;;0.90;;
21386;SDS011;10854;45.922;6.716;2024-01-25T11:34:29;1.52;;;0.90;;
21386;SDS011;10854;45.922;6.716;2024-01-25T11:37:01;1.05;;;0.70;;
21386;SDS011;10854;45.922;6.716;2024-01-25T11:39:29;1.88;;;0.80;;
21386;SDS011;10854;45.922;6.716;2024-01-25T11:42:01;0.70;;;0.70;;
21386;SDS011;10854;45.922;6.716;2024-01-25T11:44:36;1.08;;;0.60;;
21386;SDS011;10854;45.922;6.716;2024-01-25T11:47:05;0.65;;;0.63;;
21386;SDS011;10854;45.922;6.716;2024-01-25T11:49:35;1.73;;;0.70;;
21386;SDS011;10854;45.922;6.716;2024-01-25T11:52:09;0.50;;;0.50;;
21386;SDS011;10854;45.922;6.716;2024-01-25T11:54:43;0.70;;;0.70;;
21386;SDS011;10854;45.922;6.716;2024-01-25T11:57:17;1.00;;;0.70;;
21386;SDS011;10854;45.922;6.716;2024-01-25T11:59:47;1.05;;;0.73;;
21386;SDS011;10854;45.922;6.716;2024-01-25T12:02:33;0.60;;;0.60;;
21386;SDS011;10854;45.922;6.716;2024-01-25T12:05:38;0.70;;;0.60;;
21386;SDS011;10854;45.922;6.716;2024-01-25T12:08:19;0.57;;;0.57;;
21386;SDS011;10854;45.922;6.716;2024-01-25T12:11:06;1.08;;;0.60;;
21386;SDS011;10854;45.922;6.716;2024-01-25T12:13:39;1.48;;;0.60;;
21386;SDS011;10854;45.922;6.716;2024-01-25T12:16:23;2.47;;;0.50;;
21386;SDS011;10854;45.922;6.716;2024-01-25T12:18:53;0.60;;;0.60;;
21386;SDS011;10854;45.922;6.716;2024-01-25T12:21:22;0.52;;;0.52;;
21386;SDS011;10854;45.922;6.716;2024-01-25T12:23:55;3.00;;;0.60;;
21386;SDS011;10854;45.922;6.716;2024-01-25T12:26:26;0.93;;;0.75;;
21386;SDS011;10854;45.922;6.716;2024-01-25T12:28:55;0.63;;;0.57;;
21386;SDS011;10854;45.922;6.716;2024-01-25T12:31:24;1.13;;;0.80;;
21386;SDS011;10854;45.922;6.716;2024-01-25T12:33:55;0.60;;;0.60;;
21386;SDS011;10854;45.922;6.716;2024-01-25T12:36:27;0.60;;;0.60;;
21386;SDS011;10854;45.922;6.716;2024-01-25T12:38:56;1.63;;;0.90;;
21386;SDS011;10854;45.922;6.716;2024-01-25T12:41:26;1.60;;;0.70;;
21386;SDS011;10854;45.922;6.716;2024-01-25T12:43:56;1.23;;;0.90;;
21386;SDS011;10854;45.922;6.716;2024-01-25T12:46:25;1.10;;;0.90;;
21386;SDS011;10854;45.922;6.716;2024-01-25T12:49:03;1.50;;;0.63;;
21386;SDS011;10854;45.922;6.716;2024-01-25T12:51:32;2.35;;;0.80;;
21386;SDS011;10854;45.922;6.716;2024-01-25T12:54:00;1.27;;;0.80;;
21386;SDS011;10854;45.922;6.716;2024-01-25T12:56:29;1.58;;;0.80;;
21386;SDS011;10854;45.922;6.716;2024-01-25T12:58:58;3.40;;;0.77;;
21386;SDS011;10854;45.922;6.716;2024-01-25T13:01:27;1.83;;;1.08;;
21386;SDS011;10854;45.922;6.716;2024-01-25T13:04:18;0.98;;;0.75;;
21386;SDS011;10854;45.922;6.716;2024-01-25T13:07:04;1.70;;;1.00;;
21386;SDS011;10854;45.922;6.716;2024-01-25T13:09:37;1.23;;;1.00;;
21386;SDS011;10854;45.922;6.716;2024-01-25T13:12:07;1.00;;;0.95;;
21386;SDS011;10854;45.922;6.716;2024-01-25T13:14:36;1.13;;;0.90;;
21386;SDS011;10854;45.922;6.716;2024-01-25T13:17:13;1.73;;;1.08;;
21386;SDS011;10854;45.922;6.716;2024-01-25T13:19:48;1.98;;;1.00;;
21386;SDS011;10854;45.922;6.716;2024-01-25T13:22:19;1.13;;;1.00;;
21386;SDS011;10854;45.922;6.716;2024-01-25T13:24:53;1.30;;;1.00;;
21386;SDS011;10854;45.922;6.716;2024-01-25T13:27:32;2.08;;;0.88;;
21386;SDS011;10854;45.922;6.716;2024-01-25T13:30:02;1.45;;;0.90;;
21386;SDS011;10854;45.922;6.716;2024-01-25T13:32:32;1.20;;;1.00;;
21386;SDS011;10854;45.922;6.716;2024-01-25T13:35:01;1.02;;;0.85;;
21386;SDS011;10854;45.922;6.716;2024-01-25T13:37:30;1.80;;;0.85;;
21386;SDS011;10854;45.922;6.716;2024-01-25T13:40:00;3.58;;;0.90;;
21386;SDS011;10854;45.922;6.716;2024-01-25T13:42:31;1.23;;;1.13;;
21386;SDS011;10854;45.922;6.716;2024-01-25T13:45:00;0.80;;;0.80;;
21386;SDS011;10854;45.922;6.716;2024-01-25T13:47:29;3.08;;;1.23;;
21386;SDS011;10854;45.922;6.716;2024-01-25T13:49:59;1.38;;;1.00;;
21386;SDS011;10854;45.922;6.716;2024-01-25T13:52:56;2.53;;;1.30;;
21386;SDS011;10854;45.922;6.716;2024-01-25T13:55:25;1.83;;;1.38;;
21386;SDS011;10854;45.922;6.716;2024-01-25T13:57:54;2.05;;;0.90;;
21386;SDS011;10854;45.922;6.716;2024-01-25T14:00:22;4.20;;;0.95;;
21386;SDS011;10854;45.922;6.716;2024-01-25T14:02:52;2.88;;;1.02;;
21386;SDS011;10854;45.922;6.716;2024-01-25T14:05:21;1.17;;;0.98;;
21386;SDS011;10854;45.922;6.716;2024-01-25T14:07:50;1.52;;;1.00;;
21386;SDS011;10854;45.922;6.716;2024-01-25T14:10:19;1.40;;;0.93;;
21386;SDS011;10854;45.922;6.716;2024-01-25T14:12:48;3.13;;;1.00;;
21386;SDS011;10854;45.922;6.716;2024-01-25T14:15:21;1.00;;;0.90;;
21386;SDS011;10854;45.922;6.716;2024-01-25T14:17:56;1.00;;;0.80;;
21386;SDS011;10854;45.922;6.716;2024-01-25T14:20:49;2.45;;;1.20;;
21386;SDS011;10854;45.922;6.716;2024-01-25T14:23:27;5.03;;;1.40;;
21386;SDS011;10854;45.922;6.716;2024-01-25T14:26:36;1.95;;;1.00;;
21386;SDS011;10854;45.922;6.716;2024-01-25T14:29:08;1.52;;;1.02;;
21386;SDS011;10854;45.922;6.716;2024-01-25T14:31:42;1.75;;;0.95;;
21386;SDS011;10854;45.922;6.716;2024-01-25T14:34:16;2.05;;;1.10;;
21386;SDS011;10854;45.922;6.716;2024-01-25T14:36:54;1.35;;;1.10;;
21386;SDS011;10854;45.922;6.716;2024-01-25T14:40:11;1.67;;;1.02;;
21386;SDS011;10854;45.922;6.716;2024-01-25T14:42:56;2.10;;;0.90;;
21386;SDS011;10854;45.922;6.716;2024-01-25T14:45:37;2.13;;;1.20;;
21386;SDS011;10854;45.922;6.716;2024-01-25T14:48:07;0.98;;;0.88;;
21386;SDS011;10854;45.922;6.716;2024-01-25T14:50:36;1.60;;;1.10;;
21386;SDS011;10854;45.922;6.716;2024-01-25T14:53:40;5.57;;;1.27;;
21386;SDS011;10854;45.922;6.716;2024-01-25T14:56:36;4.32;;;1.80;;
21386;SDS011;10854;45.922;6.716;2024-01-25T14:59:21;1.85;;;1.10;;
21386;SDS011;10854;45.922;6.716;2024-01-25T15:01:52;2.45;;;1.17;;